createdAt,value
2022-11-29T00:00:10.560Z,6.78
2022-11-29T00:02:39.368Z,6.22
2022-11-29T00:05:10.221Z,6.83
2022-11-29T00:07:38.583Z,6.83
2022-11-29T00:10:08.214Z,6.10
2022-11-29T00:12:36.788Z,6.50
2022-11-29T00:15:05.608Z,6.85
2022-11-29T00:17:34.229Z,6.55
2022-11-29T00:20:02.492Z,6.30
2022-11-29T00:22:32.611Z,6.40
2022-11-29T00:25:01.191Z,7.00
2022-11-29T00:27:30.607Z,6.88
2022-11-29T00:29:59.267Z,6.75
2022-11-29T00:32:28.568Z,6.70
2022-11-29T00:34:59.448Z,6.22
2022-11-29T00:37:28.704Z,6.40
2022-11-29T00:39:58.725Z,6.00
2022-11-29T00:42:27.058Z,6.72
2022-11-29T00:44:55.656Z,6.45
2022-11-29T00:47:23.958Z,5.40
2022-11-29T00:49:52.254Z,6.32
2022-11-29T00:52:20.775Z,5.93
2022-11-29T00:54:49.051Z,5.70
2022-11-29T00:57:21.168Z,5.70
2022-11-29T00:59:49.428Z,5.47
2022-11-29T01:02:17.987Z,5.73
2022-11-29T01:04:47.723Z,5.10
2022-11-29T01:07:16.219Z,5.63
2022-11-29T01:09:44.690Z,5.03
2022-11-29T01:12:13.312Z,5.38
2022-11-29T01:14:43.743Z,5.30
2022-11-29T01:17:12.645Z,4.65
2022-11-29T01:19:50.941Z,4.82
2022-11-29T01:22:19.877Z,4.50
2022-11-29T01:24:48.553Z,4.70
2022-11-29T01:27:16.886Z,4.60
2022-11-29T01:29:47.421Z,4.50
2022-11-29T01:32:15.762Z,4.90
2022-11-29T01:34:44.898Z,4.57
2022-11-29T01:37:13.364Z,4.60
2022-11-29T01:39:41.659Z,5.07
2022-11-29T01:42:12.354Z,4.88
2022-11-29T01:45:20.270Z,5.00
2022-11-29T01:47:51.477Z,4.85
2022-11-29T01:50:20.842Z,4.70
2022-11-29T01:52:51.189Z,4.40
2022-11-29T01:55:21.622Z,4.80
2022-11-29T01:57:50.824Z,5.00
2022-11-29T02:00:21.680Z,4.40
2022-11-29T02:02:54.409Z,4.15
2022-11-29T02:05:23.476Z,4.50
2022-11-29T02:07:54.940Z,4.40
2022-11-29T02:10:27.326Z,4.43
2022-11-29T02:13:03.348Z,4.55
2022-11-29T02:15:44.630Z,4.97
2022-11-29T02:18:16.517Z,4.85
2022-11-29T02:21:12.818Z,4.55
2022-11-29T02:24:11.796Z,4.80
2022-11-29T02:27:11.040Z,4.85
2022-11-29T02:29:58.578Z,5.03
2022-11-29T02:32:55.527Z,4.75
2022-11-29T02:35:40.434Z,4.88
2022-11-29T02:38:26.988Z,4.40
2022-11-29T02:41:09.800Z,4.70
2022-11-29T02:44:11.212Z,4.13
2022-11-29T02:46:58.152Z,4.57
2022-11-29T02:49:54.903Z,3.90
2022-11-29T02:52:33.669Z,4.07
2022-11-29T02:55:11.003Z,3.08
2022-11-29T02:57:45.789Z,3.13
2022-11-29T03:00:17.317Z,3.38
2022-11-29T03:02:54.337Z,3.00
2022-11-29T03:05:32.118Z,4.03
2022-11-29T03:08:07.282Z,3.28
2022-11-29T03:10:47.759Z,3.53
2022-11-29T03:13:23.754Z,3.75
2022-11-29T03:16:00.854Z,3.90
2022-11-29T03:18:43.358Z,3.95
2022-11-29T03:21:22.137Z,3.80
2022-11-29T03:23:54.867Z,3.92
2022-11-29T03:26:31.044Z,3.53
2022-11-29T03:29:08.936Z,3.78
2022-11-29T03:31:40.359Z,3.45
2022-11-29T03:34:23.692Z,3.70
2022-11-29T03:37:01.588Z,3.53
2022-11-29T03:39:38.974Z,4.43
2022-11-29T03:42:13.769Z,3.90
2022-11-29T03:44:48.135Z,3.80
2022-11-29T03:47:19.995Z,3.77
2022-11-29T03:49:54.886Z,3.58
2022-11-29T03:52:30.753Z,3.38
2022-11-29T03:55:13.842Z,3.30
2022-11-29T03:57:51.472Z,3.85
2022-11-29T04:00:20.759Z,3.28
2022-11-29T04:03:21.168Z,3.30
2022-11-29T04:06:12.634Z,2.95
2022-11-29T04:08:56.994Z,3.47
2022-11-29T04:11:59.243Z,3.43
2022-11-29T04:15:02.104Z,4.05
2022-11-29T04:18:03.834Z,3.90
2022-11-29T04:21:02.604Z,3.10
2022-11-29T04:24:14.596Z,3.53
2022-11-29T04:27:11.562Z,2.93
2022-11-29T04:29:56.990Z,3.28
2022-11-29T04:33:04.286Z,3.33
2022-11-29T04:35:50.300Z,3.38
2022-11-29T04:38:55.137Z,3.47
2022-11-29T04:41:46.894Z,3.40
2022-11-29T04:44:45.269Z,3.45
2022-11-29T04:47:30.686Z,3.10
2022-11-29T04:50:15.791Z,2.80
2022-11-29T04:53:10.446Z,2.90
2022-11-29T04:55:46.900Z,3.05
2022-11-29T04:58:24.342Z,3.80
2022-11-29T05:01:01.105Z,3.28
2022-11-29T05:03:38.714Z,3.08
2022-11-29T05:06:20.504Z,3.05
2022-11-29T05:09:04.522Z,2.95
2022-11-29T05:11:42.730Z,3.00
2022-11-29T05:14:21.303Z,2.90
2022-11-29T05:17:02.776Z,2.50
2022-11-29T05:19:50.292Z,2.70
2022-11-29T05:22:37.290Z,2.70
2022-11-29T05:25:32.650Z,2.45
2022-11-29T05:28:10.201Z,2.97
2022-11-29T05:31:10.784Z,3.03
2022-11-29T05:34:05.796Z,3.07
2022-11-29T05:36:41.762Z,2.88
2022-11-29T05:39:30.595Z,2.75
2022-11-29T05:42:31.563Z,2.30
2022-11-29T05:45:06.708Z,2.42
2022-11-29T05:47:40.915Z,2.45
2022-11-29T05:50:20.223Z,2.60
2022-11-29T05:52:57.139Z,2.25
2022-11-29T05:55:36.301Z,2.83
2022-11-29T05:58:13.925Z,1.92
2022-11-29T06:00:49.997Z,2.00
2022-11-29T06:03:26.222Z,2.08
2022-11-29T06:06:01.456Z,1.92
2022-11-29T06:08:38.791Z,2.35
2022-11-29T06:11:15.652Z,2.47
2022-11-29T06:14:13.495Z,2.50
2022-11-29T06:17:07.782Z,2.22
2022-11-29T06:20:09.154Z,2.20
2022-11-29T06:25:48.654Z,2.05
2022-11-29T06:28:36.728Z,2.00
2022-11-29T06:31:17.364Z,2.20
2022-11-29T06:33:56.405Z,2.40
2022-11-29T06:36:30.622Z,2.20
2022-11-29T06:39:00.764Z,1.98
2022-11-29T06:41:31.271Z,2.80
2022-11-29T06:44:00.180Z,2.22
2022-11-29T06:46:39.509Z,2.03
2022-11-29T06:49:13.921Z,2.38
2022-11-29T06:51:50.958Z,2.28
2022-11-29T06:54:43.719Z,2.17
2022-11-29T06:57:21.483Z,2.40
2022-11-29T07:00:03.687Z,2.57
2022-11-29T07:03:03.101Z,2.50
2022-11-29T07:05:32.733Z,1.90
2022-11-29T07:08:05.087Z,2.57
2022-11-29T07:10:37.431Z,2.17
2022-11-29T07:13:08.134Z,2.38
2022-11-29T07:15:42.068Z,2.27
2022-11-29T07:18:18.515Z,2.10
2022-11-29T07:21:00.823Z,2.20
2022-11-29T07:23:36.982Z,2.20
2022-11-29T07:26:18.920Z,2.05
2022-11-29T07:29:13.410Z,2.53
2022-11-29T07:31:51.091Z,2.05
2022-11-29T07:34:24.561Z,2.25
2022-11-29T07:37:03.587Z,2.00
2022-11-29T07:39:42.773Z,2.28
2022-11-29T07:42:20.428Z,2.15
2022-11-29T07:45:09.043Z,2.05
2022-11-29T07:47:37.441Z,1.90
2022-11-29T07:50:06.683Z,1.92
2022-11-29T07:52:36.747Z,1.88
2022-11-29T07:55:05.983Z,1.93
2022-11-29T07:57:36.595Z,2.22
2022-11-29T08:00:11.761Z,1.90
2022-11-29T08:02:41.040Z,2.10
2022-11-29T08:05:10.457Z,2.08
2022-11-29T08:07:40.752Z,1.92
2022-11-29T08:10:13.498Z,1.77
2022-11-29T08:12:46.284Z,2.28
2022-11-29T08:15:16.995Z,2.50
2022-11-29T08:17:45.934Z,1.92
2022-11-29T08:20:17.604Z,2.22
2022-11-29T08:22:45.832Z,11.27
2022-11-29T08:25:14.905Z,3.40
2022-11-29T08:27:43.753Z,3.42
2022-11-29T08:30:12.684Z,4.80
2022-11-29T08:32:44.837Z,4.63
2022-11-29T08:35:16.980Z,2.20
2022-11-29T08:37:46.709Z,3.08
2022-11-29T08:40:15.880Z,9.60
2022-11-29T08:42:44.561Z,9.90
2022-11-29T08:45:13.683Z,10.02
2022-11-29T08:47:43.734Z,6.00
2022-11-29T08:50:16.077Z,3.83
2022-11-29T08:53:09.796Z,3.70
2022-11-29T08:55:42.743Z,4.80
2022-11-29T08:58:16.835Z,2.38
2022-11-29T09:00:48.234Z,2.53
2022-11-29T09:03:36.279Z,2.67
2022-11-29T09:06:11.964Z,4.85
2022-11-29T09:08:43.636Z,3.60
2022-11-29T09:11:15.496Z,3.07
2022-11-29T09:13:45.434Z,2.43
2022-11-29T09:16:18.037Z,3.33
2022-11-29T09:18:52.203Z,2.60
2022-11-29T09:21:22.578Z,2.53
2022-11-29T09:23:51.241Z,2.53
2022-11-29T09:26:21.441Z,2.42
2022-11-29T09:28:52.089Z,2.50
2022-11-29T09:31:23.896Z,2.40
2022-11-29T09:33:53.866Z,2.30
2022-11-29T09:36:28.573Z,2.17
2022-11-29T09:39:02.696Z,2.35
2022-11-29T09:41:53.333Z,2.00
2022-11-29T09:44:29.039Z,2.08
2022-11-29T09:47:05.079Z,2.38
2022-11-29T09:50:04.132Z,2.25
2022-11-29T09:52:44.572Z,2.38
2022-11-29T09:55:40.294Z,2.25
2022-11-29T09:58:17.923Z,2.10
2022-11-29T10:00:51.216Z,3.35
2022-11-29T10:03:25.582Z,2.53
2022-11-29T10:05:59.777Z,2.28
2022-11-29T10:08:33.953Z,1.85
2022-11-29T10:11:17.261Z,2.30
2022-11-29T10:13:51.166Z,1.80
2022-11-29T10:16:26.615Z,3.00
2022-11-29T10:19:04.586Z,2.05
2022-11-29T10:21:37.805Z,2.63
2022-11-29T10:24:13.532Z,3.28
2022-11-29T10:26:43.674Z,3.17
2022-11-29T10:29:15.400Z,2.67
2022-11-29T10:31:49.344Z,2.00
2022-11-29T10:34:19.630Z,2.85
2022-11-29T10:36:54.054Z,2.33
2022-11-29T10:39:37.421Z,1.90
2022-11-29T10:42:27.944Z,2.00
2022-11-29T10:44:58.352Z,1.90
2022-11-29T10:47:26.847Z,1.92
2022-11-29T10:49:56.893Z,4.35
2022-11-29T10:52:26.610Z,3.72
2022-11-29T10:54:59.798Z,2.35
2022-11-29T10:57:29.436Z,2.88
2022-11-29T11:00:04.399Z,2.65
2022-11-29T11:02:33.661Z,2.45
2022-11-29T11:05:03.109Z,2.85
2022-11-29T11:07:35.803Z,3.00
2022-11-29T11:10:08.132Z,3.58
2022-11-29T11:12:38.086Z,3.08
2022-11-29T11:15:28.741Z,2.58
2022-11-29T11:17:59.062Z,3.05
2022-11-29T11:20:32.038Z,3.00
2022-11-29T11:23:03.792Z,3.05
2022-11-29T11:25:34.772Z,3.10
2022-11-29T11:28:18.415Z,2.60
2022-11-29T11:30:52.651Z,2.58
2022-11-29T11:33:25.533Z,2.40
2022-11-29T11:36:24.161Z,1.90
2022-11-29T11:38:55.601Z,2.10
2022-11-29T11:41:48.909Z,1.90
2022-11-29T11:44:46.710Z,2.08
2022-11-29T11:47:21.429Z,1.85
2022-11-29T11:49:54.956Z,1.65
2022-11-29T11:52:26.003Z,1.30
2022-11-29T11:55:05.751Z,1.90
2022-11-29T11:57:34.416Z,1.27
2022-11-29T12:00:07.317Z,1.08
2022-11-29T12:02:39.993Z,1.10
2022-11-29T12:05:17.106Z,1.02
2022-11-29T12:10:44.392Z,0.88
2022-11-29T12:13:21.355Z,1.05
2022-11-29T12:15:52.260Z,1.30
2022-11-29T12:18:31.779Z,1.50
2022-11-29T12:21:08.480Z,1.00
2022-11-29T12:23:45.267Z,0.80
2022-11-29T12:26:48.923Z,0.93
2022-11-29T12:29:15.302Z,1.17
2022-11-29T12:31:55.445Z,0.93
2022-11-29T12:34:49.474Z,1.20
2022-11-29T12:37:26.566Z,1.10
2022-11-29T12:40:02.734Z,1.13
2022-11-29T12:42:50.743Z,1.15
2022-11-29T12:45:38.565Z,0.93
2022-11-29T12:48:19.950Z,0.90
2022-11-29T12:50:57.023Z,1.00
2022-11-29T12:53:43.751Z,0.97
2022-11-29T12:56:22.766Z,0.90
2022-11-29T12:59:15.380Z,1.05
2022-11-29T13:02:02.593Z,0.77
2022-11-29T13:04:40.106Z,0.70
2022-11-29T13:07:22.112Z,0.90
2022-11-29T13:10:32.145Z,0.90
2022-11-29T13:13:09.793Z,0.85
2022-11-29T13:15:53.034Z,0.90
2022-11-29T13:18:28.213Z,0.90
2022-11-29T13:21:07.683Z,0.85
2022-11-29T13:26:32.977Z,0.60
2022-11-29T13:29:03.302Z,0.82
2022-11-29T13:31:34.421Z,0.70
2022-11-29T13:34:09.223Z,0.93
2022-11-29T13:36:55.182Z,0.70
2022-11-29T13:39:37.564Z,0.70
2022-11-29T13:42:12.686Z,0.60
2022-11-29T13:44:48.370Z,0.60
2022-11-29T13:47:20.099Z,0.50
2022-11-29T13:49:56.196Z,0.70
2022-11-29T13:52:42.285Z,0.68
2022-11-29T13:55:32.582Z,0.80
2022-11-29T13:58:22.252Z,0.43
2022-11-29T14:00:53.115Z,0.60
2022-11-29T14:03:40.789Z,0.60
2022-11-29T14:06:21.307Z,0.90
2022-11-29T14:09:26.572Z,0.68
2022-11-29T14:12:04.329Z,0.70
2022-11-29T14:14:39.096Z,0.52
2022-11-29T14:17:28.372Z,0.65
2022-11-29T14:20:51.615Z,0.50
2022-11-29T14:23:36.687Z,0.47
2022-11-29T14:26:30.164Z,0.30
2022-11-29T14:29:00.226Z,0.40
2022-11-29T14:31:51.864Z,0.45
2022-11-29T14:34:37.588Z,0.43
2022-11-29T14:37:25.239Z,0.60
2022-11-29T14:39:59.430Z,0.52
2022-11-29T14:42:29.972Z,0.60
2022-11-29T14:45:02.268Z,0.52
2022-11-29T14:47:34.500Z,0.50
2022-11-29T14:50:07.526Z,0.90
2022-11-29T14:52:41.258Z,1.00
2022-11-29T14:55:30.357Z,1.00
2022-11-29T14:58:18.355Z,1.00
2022-11-29T15:01:11.522Z,1.00
2022-11-29T15:03:51.104Z,1.40
2022-11-29T15:06:28.479Z,1.50
2022-11-29T15:09:04.777Z,1.10
2022-11-29T15:11:49.598Z,0.90
2022-11-29T15:14:24.306Z,1.40
2022-11-29T15:17:17.818Z,1.30
2022-11-29T15:20:29.362Z,1.20
2022-11-29T15:23:01.002Z,1.60
2022-11-29T15:25:32.519Z,1.48
2022-11-29T15:28:02.231Z,1.60
2022-11-29T15:30:35.698Z,1.00
2022-11-29T15:33:07.557Z,1.40
2022-11-29T15:35:37.675Z,1.02
2022-11-29T15:38:05.978Z,1.30
2022-11-29T15:40:37.348Z,1.13
2022-11-29T15:43:16.519Z,1.10
2022-11-29T15:45:50.377Z,0.93
2022-11-29T15:48:21.335Z,1.15
2022-11-29T15:50:54.971Z,1.53
2022-11-29T15:53:27.518Z,2.00
2022-11-29T15:55:59.490Z,2.25
2022-11-29T15:58:31.777Z,2.30
2022-11-29T16:01:03.335Z,1.83
2022-11-29T16:03:37.196Z,1.60
2022-11-29T16:06:09.972Z,1.80
2022-11-29T16:08:43.447Z,1.63
2022-11-29T16:11:19.215Z,2.08
2022-11-29T16:14:06.194Z,1.90
2022-11-29T16:16:37.723Z,4.32
2022-11-29T16:19:23.007Z,12.07
2022-11-29T16:22:08.734Z,13.88
2022-11-29T16:24:39.257Z,10.75
2022-11-29T16:27:09.560Z,6.53
2022-11-29T16:29:43.103Z,9.00
2022-11-29T16:32:17.301Z,10.02
2022-11-29T16:34:46.807Z,10.75
2022-11-29T16:37:20.061Z,11.97
2022-11-29T16:39:51.051Z,11.60
2022-11-29T16:42:26.017Z,11.88
2022-11-29T16:45:09.715Z,12.48
2022-11-29T16:48:01.649Z,15.98
2022-11-29T16:50:31.330Z,14.50
2022-11-29T16:53:35.115Z,16.98
2022-11-29T16:56:07.047Z,15.82
2022-11-29T16:59:20.956Z,15.93
2022-11-29T17:01:30.139Z,15.03
2022-11-29T17:03:59.713Z,15.18
2022-11-29T17:06:30.024Z,16.70
2022-11-29T17:09:00.098Z,16.08
2022-11-29T17:11:29.118Z,17.70
2022-11-29T17:13:58.789Z,16.42
2022-11-29T17:16:27.291Z,13.50
2022-11-29T17:18:55.875Z,13.00
2022-11-29T17:21:25.904Z,13.45
2022-11-29T17:23:56.466Z,10.88
2022-11-29T17:26:25.636Z,10.82
2022-11-29T17:28:54.303Z,12.50
2022-11-29T17:31:25.796Z,13.25
2022-11-29T17:33:54.403Z,20.40
2022-11-29T17:36:24.442Z,14.63
2022-11-29T17:38:52.872Z,13.15
2022-11-29T17:41:26.253Z,14.93
2022-11-29T17:43:56.791Z,15.68
2022-11-29T17:46:28.492Z,14.43
2022-11-29T17:48:59.455Z,13.25
2022-11-29T17:54:16.491Z,14.80
2022-11-29T17:59:27.078Z,18.38
2022-11-29T18:01:56.913Z,23.63
2022-11-29T18:04:25.187Z,32.55
2022-11-29T18:06:58.834Z,35.85
2022-11-29T18:09:28.212Z,45.58
2022-11-29T18:11:56.992Z,48.05
2022-11-29T18:14:28.395Z,41.42
2022-11-29T18:16:58.644Z,41.72
2022-11-29T18:19:28.061Z,32.80
2022-11-29T18:21:58.169Z,35.50
2022-11-29T18:24:26.726Z,40.17
2022-11-29T18:26:54.949Z,35.07
2022-11-29T18:29:23.337Z,36.50
2022-11-29T18:31:54.274Z,35.80
2022-11-29T18:34:24.194Z,38.85
2022-11-29T18:36:52.922Z,58.08
2022-11-29T18:39:23.630Z,47.03
2022-11-29T18:41:53.053Z,53.97
2022-11-29T18:44:24.343Z,54.17
2022-11-29T18:46:52.663Z,43.70
2022-11-29T18:49:21.790Z,40.38
2022-11-29T18:51:51.971Z,44.67
2022-11-29T18:54:20.521Z,41.08
2022-11-29T18:56:51.765Z,41.60
2022-11-29T18:59:20.084Z,39.70
2022-11-29T19:01:49.457Z,37.92
2022-11-29T19:04:23.104Z,36.97
2022-11-29T19:06:53.426Z,37.78
2022-11-29T19:09:23.369Z,35.33
2022-11-29T19:11:52.114Z,35.63
2022-11-29T19:14:21.328Z,35.17
2022-11-29T19:16:51.295Z,34.23
2022-11-29T19:19:20.170Z,35.17
2022-11-29T19:21:48.971Z,30.30
2022-11-29T19:24:19.984Z,31.25
2022-11-29T19:26:49.304Z,32.83
2022-11-29T19:29:17.915Z,32.95
2022-11-29T19:31:46.242Z,33.93
2022-11-29T19:34:15.139Z,32.05
2022-11-29T19:36:45.022Z,32.33
2022-11-29T19:39:15.595Z,31.85
2022-11-29T19:41:47.597Z,30.65
2022-11-29T19:44:15.920Z,33.53
2022-11-29T19:46:47.271Z,30.27
2022-11-29T19:49:15.525Z,31.30
2022-11-29T19:51:46.799Z,31.35
2022-11-29T19:54:15.080Z,43.47
2022-11-29T19:56:44.763Z,44.28
2022-11-29T19:59:13.103Z,42.38
2022-11-29T20:01:42.895Z,38.65
2022-11-29T20:04:15.561Z,34.53
2022-11-29T20:06:45.993Z,33.93
2022-11-29T20:09:15.105Z,33.83
2022-11-29T20:11:45.095Z,32.80
2022-11-29T20:14:14.732Z,30.95
2022-11-29T20:16:44.781Z,34.53
2022-11-29T20:19:15.041Z,35.42
2022-11-29T20:21:46.369Z,40.13
2022-11-29T20:24:15.674Z,46.33
2022-11-29T20:26:49.787Z,52.30
2022-11-29T20:29:19.371Z,49.75
2022-11-29T20:31:50.807Z,47.83
2022-11-29T20:34:20.844Z,56.83
2022-11-29T20:37:11.362Z,59.72
2022-11-29T20:39:47.127Z,41.63
2022-11-29T20:42:37.174Z,30.73
2022-11-29T20:45:10.077Z,29.50
2022-11-29T20:47:46.426Z,26.42
2022-11-29T20:50:22.876Z,27.87
2022-11-29T20:53:03.267Z,26.85
2022-11-29T20:55:32.759Z,25.02
2022-11-29T20:58:04.133Z,25.20
2022-11-29T21:00:33.164Z,24.48
2022-11-29T21:03:01.480Z,26.20
2022-11-29T21:05:29.750Z,34.55
2022-11-29T21:07:58.609Z,27.93
2022-11-29T21:10:29.795Z,28.92
2022-11-29T21:12:58.647Z,31.23
2022-11-29T21:15:29.433Z,31.00
2022-11-29T21:17:58.523Z,31.83
2022-11-29T21:20:28.527Z,32.57
2022-11-29T21:23:06.119Z,35.20
2022-11-29T21:25:44.174Z,38.25
2022-11-29T21:28:14.796Z,38.72
2022-11-29T21:30:46.837Z,35.55
2022-11-29T21:33:15.735Z,34.50
2022-11-29T21:35:44.279Z,34.53
2022-11-29T21:38:20.683Z,35.00
2022-11-29T21:40:49.485Z,36.58
2022-11-29T21:43:18.089Z,37.17
2022-11-29T21:45:51.415Z,37.38
2022-11-29T21:48:42.332Z,35.42
2022-11-29T21:51:12.297Z,36.78
2022-11-29T21:53:42.368Z,36.67
2022-11-29T21:56:12.055Z,36.83
2022-11-29T21:58:41.187Z,38.00
2022-11-29T22:01:14.001Z,37.30
2022-11-29T22:03:43.847Z,39.72
2022-11-29T22:06:13.608Z,37.10
2022-11-29T22:08:45.449Z,37.43
2022-11-29T22:11:15.359Z,42.30
2022-11-29T22:13:59.193Z,38.80
2022-11-29T22:16:29.741Z,37.45
2022-11-29T22:18:58.296Z,29.85
2022-11-29T22:21:30.066Z,27.95
2022-11-29T22:23:58.661Z,28.70
2022-11-29T22:26:28.596Z,26.38
2022-11-29T22:28:56.871Z,27.83
2022-11-29T22:31:25.171Z,26.42
2022-11-29T22:33:56.387Z,25.40
2022-11-29T22:36:29.255Z,27.40
2022-11-29T22:38:58.043Z,26.50
2022-11-29T22:41:26.645Z,27.30
2022-11-29T22:43:55.291Z,26.95
2022-11-29T22:46:25.003Z,27.63
2022-11-29T22:48:56.556Z,25.58
2022-11-29T22:51:27.039Z,25.00
2022-11-29T22:53:58.303Z,29.20
2022-11-29T22:56:28.551Z,31.67
2022-11-29T22:58:57.810Z,30.88
2022-11-29T23:01:27.593Z,27.98
2022-11-29T23:03:59.012Z,29.02
2022-11-29T23:06:29.223Z,29.00
2022-11-29T23:08:59.147Z,30.15
2022-11-29T23:11:31.391Z,31.40
2022-11-29T23:14:01.022Z,33.17
2022-11-29T23:16:31.081Z,33.92
2022-11-29T23:19:01.345Z,29.50
2022-11-29T23:21:31.813Z,27.52
2022-11-29T23:24:01.595Z,29.02
2022-11-29T23:26:34.000Z,27.50
2022-11-29T23:29:02.392Z,27.73
2022-11-29T23:31:30.905Z,26.58
2022-11-29T23:34:01.013Z,24.65
2022-11-29T23:36:29.548Z,23.70
2022-11-29T23:38:58.337Z,23.98
2022-11-29T23:41:26.780Z,23.80
2022-11-29T23:43:55.621Z,24.23
2022-11-29T23:46:25.361Z,21.48
2022-11-29T23:48:54.570Z,21.70
2022-11-29T23:51:25.489Z,22.55
2022-11-29T23:53:56.838Z,20.00
2022-11-29T23:56:25.159Z,16.63
2022-11-29T23:58:54.845Z,18.98
